sensor_id;sensor_type;location;lat;lon;timestamp;temperature;humidity
40287;DHT22;25998;46.604;13.610;2022-07-23T00:02:55;23.50;90.70
40287;DHT22;25998;46.604;13.610;2022-07-23T00:06:08;23.40;90.80
40287;DHT22;25998;46.604;13.610;2022-07-23T00:09:19;23.30;91.10
40287;DHT22;25998;46.604;13.610;2022-07-23T00:12:30;23.30;91.10
40287;DHT22;25998;46.604;13.610;2022-07-23T00:15:41;23.40;91.10
40287;DHT22;25998;46.604;13.610;2022-07-23T00:18:52;23.50;91.20
40287;DHT22;25998;46.604;13.610;2022-07-23T00:22:03;23.20;91.40
40287;DHT22;25998;46.604;13.610;2022-07-23T00:25:14;23.00;91.70
40287;DHT22;25998;46.604;13.610;2022-07-23T00:28:25;22.90;91.80
40287;DHT22;25998;46.604;13.610;2022-07-23T00:31:36;22.70;92.30
40287;DHT22;25998;46.604;13.610;2022-07-23T00:34:47;22.80;91.80
40287;DHT22;25998;46.604;13.610;2022-07-23T00:37:59;22.70;92.30
40287;DHT22;25998;46.604;13.610;2022-07-23T00:41:10;22.50;92.60
40287;DHT22;25998;46.604;13.610;2022-07-23T00:44:23;22.50;92.70
40287;DHT22;25998;46.604;13.610;2022-07-23T00:47:34;22.50;92.80
40287;DHT22;25998;46.604;13.610;2022-07-23T00:50:45;22.40;93.00
40287;DHT22;25998;46.604;13.610;2022-07-23T00:53:56;22.30;92.90
40287;DHT22;25998;46.604;13.610;2022-07-23T00:57:08;22.30;93.00
40287;DHT22;25998;46.604;13.610;2022-07-23T01:00:19;22.40;92.90
40287;DHT22;25998;46.604;13.610;2022-07-23T01:03:30;22.40;92.90
40287;DHT22;25998;46.604;13.610;2022-07-23T01:06:43;22.30;92.70
40287;DHT22;25998;46.604;13.610;2022-07-23T01:09:56;22.50;91.70
40287;DHT22;25998;46.604;13.610;2022-07-23T01:13:09;22.60;92.10
40287;DHT22;25998;46.604;13.610;2022-07-23T01:16:20;22.80;91.90
40287;DHT22;25998;46.604;13.610;2022-07-23T01:19:31;23.00;91.80
40287;DHT22;25998;46.604;13.610;2022-07-23T01:22:42;23.20;91.60
40287;DHT22;25998;46.604;13.610;2022-07-23T01:25:54;23.00;91.90
40287;DHT22;25998;46.604;13.610;2022-07-23T01:29:05;22.50;92.30
40287;DHT22;25998;46.604;13.610;2022-07-23T01:32:16;22.30;92.60
40287;DHT22;25998;46.604;13.610;2022-07-23T01:35:27;22.10;92.90
40287;DHT22;25998;46.604;13.610;2022-07-23T01:38:38;21.90;93.20
40287;DHT22;25998;46.604;13.610;2022-07-23T01:41:49;21.80;93.50
40287;DHT22;25998;46.604;13.610;2022-07-23T01:45:00;21.70;93.50
40287;DHT22;25998;46.604;13.610;2022-07-23T01:48:11;21.70;93.60
40287;DHT22;25998;46.604;13.610;2022-07-23T01:51:21;21.60;93.70
40287;DHT22;25998;46.604;13.610;2022-07-23T01:54:33;21.70;93.50
40287;DHT22;25998;46.604;13.610;2022-07-23T01:57:44;21.70;93.20
40287;DHT22;25998;46.604;13.610;2022-07-23T02:00:55;21.70;93.30
40287;DHT22;25998;46.604;13.610;2022-07-23T02:04:06;21.70;92.90
40287;DHT22;25998;46.604;13.610;2022-07-23T02:07:17;21.60;92.90
40287;DHT22;25998;46.604;13.610;2022-07-23T02:10:28;21.70;93.00
40287;DHT22;25998;46.604;13.610;2022-07-23T02:13:39;21.70;92.90
40287;DHT22;25998;46.604;13.610;2022-07-23T02:16:50;21.70;93.10
40287;DHT22;25998;46.604;13.610;2022-07-23T02:20:01;21.60;92.90
40287;DHT22;25998;46.604;13.610;2022-07-23T02:23:11;21.60;93.00
40287;DHT22;25998;46.604;13.610;2022-07-23T02:26:22;21.80;92.60
40287;DHT22;25998;46.604;13.610;2022-07-23T02:29:33;22.00;92.30
40287;DHT22;25998;46.604;13.610;2022-07-23T02:32:44;22.20;92.10
40287;DHT22;25998;46.604;13.610;2022-07-23T02:35:55;22.20;92.20
40287;DHT22;25998;46.604;13.610;2022-07-23T02:39:06;22.10;92.20
40287;DHT22;25998;46.604;13.610;2022-07-23T02:42:17;21.80;92.50
40287;DHT22;25998;46.604;13.610;2022-07-23T02:45:28;21.90;92.50
40287;DHT22;25998;46.604;13.610;2022-07-23T02:48:39;21.70;92.70
40287;DHT22;25998;46.604;13.610;2022-07-23T02:51:50;21.40;92.90
40287;DHT22;25998;46.604;13.610;2022-07-23T02:55:01;21.30;93.40
40287;DHT22;25998;46.604;13.610;2022-07-23T02:58:12;21.20;93.30
40287;DHT22;25998;46.604;13.610;2022-07-23T03:01:23;21.20;93.40
40287;DHT22;25998;46.604;13.610;2022-07-23T03:04:34;21.10;93.20
40287;DHT22;25998;46.604;13.610;2022-07-23T03:07:45;21.10;93.30
40287;DHT22;25998;46.604;13.610;2022-07-23T03:10:56;21.10;93.40
40287;DHT22;25998;46.604;13.610;2022-07-23T03:14:07;21.20;93.10
40287;DHT22;25998;46.604;13.610;2022-07-23T03:17:18;21.40;92.90
40287;DHT22;25998;46.604;13.610;2022-07-23T03:20:29;21.50;93.00
40287;DHT22;25998;46.604;13.610;2022-07-23T03:23:40;21.30;93.30
40287;DHT22;25998;46.604;13.610;2022-07-23T03:26:50;21.20;93.30
40287;DHT22;25998;46.604;13.610;2022-07-23T03:30:01;21.20;93.00
40287;DHT22;25998;46.604;13.610;2022-07-23T03:33:16;21.30;92.70
40287;DHT22;25998;46.604;13.610;2022-07-23T03:36:27;21.40;92.60
40287;DHT22;25998;46.604;13.610;2022-07-23T03:39:39;21.50;92.60
40287;DHT22;25998;46.604;13.610;2022-07-23T03:42:50;21.50;92.50
40287;DHT22;25998;46.604;13.610;2022-07-23T03:46:01;21.50;92.60
40287;DHT22;25998;46.604;13.610;2022-07-23T03:49:12;21.50;92.80
40287;DHT22;25998;46.604;13.610;2022-07-23T03:52:26;21.60;92.30
40287;DHT22;25998;46.604;13.610;2022-07-23T03:55:37;21.70;92.20
40287;DHT22;25998;46.604;13.610;2022-07-23T03:58:48;21.70;92.00
40287;DHT22;25998;46.604;13.610;2022-07-23T04:01:58;21.70;92.30
40287;DHT22;25998;46.604;13.610;2022-07-23T04:05:09;21.80;92.10
40287;DHT22;25998;46.604;13.610;2022-07-23T04:08:20;21.80;92.20
40287;DHT22;25998;46.604;13.610;2022-07-23T04:11:31;21.60;92.80
40287;DHT22;25998;46.604;13.610;2022-07-23T04:14:42;21.50;92.90
40287;DHT22;25998;46.604;13.610;2022-07-23T04:17:53;21.60;93.00
40287;DHT22;25998;46.604;13.610;2022-07-23T04:21:04;21.60;92.80
40287;DHT22;25998;46.604;13.610;2022-07-23T04:24:15;21.60;93.10
40287;DHT22;25998;46.604;13.610;2022-07-23T04:27:26;21.60;93.00
40287;DHT22;25998;46.604;13.610;2022-07-23T04:30:37;21.50;93.20
40287;DHT22;25998;46.604;13.610;2022-07-23T04:33:48;21.60;92.90
40287;DHT22;25998;46.604;13.610;2022-07-23T04:36:59;21.50;93.00
40287;DHT22;25998;46.604;13.610;2022-07-23T04:40:11;21.50;93.10
40287;DHT22;25998;46.604;13.610;2022-07-23T04:43:22;21.40;93.60
40287;DHT22;25998;46.604;13.610;2022-07-23T04:46:33;21.30;93.60
40287;DHT22;25998;46.604;13.610;2022-07-23T04:49:44;21.30;94.00
40287;DHT22;25998;46.604;13.610;2022-07-23T04:52:55;21.20;94.30
40287;DHT22;25998;46.604;13.610;2022-07-23T04:56:06;21.20;94.90
40287;DHT22;25998;46.604;13.610;2022-07-23T04:59:17;21.30;94.30
40287;DHT22;25998;46.604;13.610;2022-07-23T05:02:28;21.50;93.90
40287;DHT22;25998;46.604;13.610;2022-07-23T05:05:39;21.50;94.20
40287;DHT22;25998;46.604;13.610;2022-07-23T05:08:50;21.50;94.70
40287;DHT22;25998;46.604;13.610;2022-07-23T05:12:01;21.50;94.70
40287;DHT22;25998;46.604;13.610;2022-07-23T05:15:12;21.70;94.60
40287;DHT22;25998;46.604;13.610;2022-07-23T05:18:23;21.90;94.80
40287;DHT22;25998;46.604;13.610;2022-07-23T05:21:33;22.10;94.40
40287;DHT22;25998;46.604;13.610;2022-07-23T05:24:44;22.30;94.20
40287;DHT22;25998;46.604;13.610;2022-07-23T05:27:55;22.30;94.40
40287;DHT22;25998;46.604;13.610;2022-07-23T05:31:06;22.60;94.40
40287;DHT22;25998;46.604;13.610;2022-07-23T05:34:17;22.80;93.80
40287;DHT22;25998;46.604;13.610;2022-07-23T05:37:28;22.80;94.50
40287;DHT22;25998;46.604;13.610;2022-07-23T05:40:38;22.60;95.00
40287;DHT22;25998;46.604;13.610;2022-07-23T05:43:50;22.50;95.10
40287;DHT22;25998;46.604;13.610;2022-07-23T05:47:01;22.60;95.50
40287;DHT22;25998;46.604;13.610;2022-07-23T05:50:13;22.80;95.10
40287;DHT22;25998;46.604;13.610;2022-07-23T05:53:24;22.90;95.50
40287;DHT22;25998;46.604;13.610;2022-07-23T05:56:35;22.90;95.80
40287;DHT22;25998;46.604;13.610;2022-07-23T05:59:46;23.00;95.40
40287;DHT22;25998;46.604;13.610;2022-07-23T06:02:57;23.20;95.50
40287;DHT22;25998;46.604;13.610;2022-07-23T06:06:08;23.70;95.50
40287;DHT22;25998;46.604;13.610;2022-07-23T06:09:19;24.10;95.00
40287;DHT22;25998;46.604;13.610;2022-07-23T06:12:30;24.60;94.20
40287;DHT22;25998;46.604;13.610;2022-07-23T06:15:41;24.90;94.10
40287;DHT22;25998;46.604;13.610;2022-07-23T06:18:51;25.10;93.80
40287;DHT22;25998;46.604;13.610;2022-07-23T06:22:02;25.30;93.40
40287;DHT22;25998;46.604;13.610;2022-07-23T06:25:13;25.50;93.90
40287;DHT22;25998;46.604;13.610;2022-07-23T06:28:24;25.60;93.10
40287;DHT22;25998;46.604;13.610;2022-07-23T06:31:35;25.70;93.30
40287;DHT22;25998;46.604;13.610;2022-07-23T06:34:46;25.80;93.50
40287;DHT22;25998;46.604;13.610;2022-07-23T06:37:57;26.30;93.60
40287;DHT22;25998;46.604;13.610;2022-07-23T06:41:08;26.70;92.50
40287;DHT22;25998;46.604;13.610;2022-07-23T06:44:19;27.10;91.80
40287;DHT22;25998;46.604;13.610;2022-07-23T06:47:29;27.30;91.40
40287;DHT22;25998;46.604;13.610;2022-07-23T06:50:40;27.20;92.20
40287;DHT22;25998;46.604;13.610;2022-07-23T06:53:51;27.00;92.00
40287;DHT22;25998;46.604;13.610;2022-07-23T06:57:02;27.20;88.10
40287;DHT22;25998;46.604;13.610;2022-07-23T07:00:13;27.70;89.30
40287;DHT22;25998;46.604;13.610;2022-07-23T07:03:24;27.80;82.50
40287;DHT22;25998;46.604;13.610;2022-07-23T07:06:35;27.90;83.50
40287;DHT22;25998;46.604;13.610;2022-07-23T07:09:46;28.00;82.00
40287;DHT22;25998;46.604;13.610;2022-07-23T07:12:57;27.50;83.60
40287;DHT22;25998;46.604;13.610;2022-07-23T07:16:08;27.20;85.40
40287;DHT22;25998;46.604;13.610;2022-07-23T07:19:19;26.40;85.80
40287;DHT22;25998;46.604;13.610;2022-07-23T07:22:30;26.00;85.40
40287;DHT22;25998;46.604;13.610;2022-07-23T07:25:40;25.60;85.70
40287;DHT22;25998;46.604;13.610;2022-07-23T07:28:51;25.60;84.90
40287;DHT22;25998;46.604;13.610;2022-07-23T07:32:02;25.50;84.80
40287;DHT22;25998;46.604;13.610;2022-07-23T07:35:13;25.30;84.90
40287;DHT22;25998;46.604;13.610;2022-07-23T07:38:24;25.20;85.50
40287;DHT22;25998;46.604;13.610;2022-07-23T07:41:35;25.10;86.60
40287;DHT22;25998;46.604;13.610;2022-07-23T07:44:46;24.80;90.10
40287;DHT22;25998;46.604;13.610;2022-07-23T07:47:57;24.50;91.00
40287;DHT22;25998;46.604;13.610;2022-07-23T07:51:08;24.10;91.90
40287;DHT22;25998;46.604;13.610;2022-07-23T07:54:19;23.80;92.70
40287;DHT22;25998;46.604;13.610;2022-07-23T07:57:29;23.80;92.70
40287;DHT22;25998;46.604;13.610;2022-07-23T08:00:40;23.70;93.50
40287;DHT22;25998;46.604;13.610;2022-07-23T08:03:51;23.80;94.00
40287;DHT22;25998;46.604;13.610;2022-07-23T08:07:03;24.00;94.00
40287;DHT22;25998;46.604;13.610;2022-07-23T08:10:15;24.30;92.50
40287;DHT22;25998;46.604;13.610;2022-07-23T08:13:26;25.40;91.70
40287;DHT22;25998;46.604;13.610;2022-07-23T08:16:37;26.10;90.50
40287;DHT22;25998;46.604;13.610;2022-07-23T08:19:47;26.10;90.90
40287;DHT22;25998;46.604;13.610;2022-07-23T08:23:02;26.00;90.30
40287;DHT22;25998;46.604;13.610;2022-07-23T08:26:13;26.00;90.30
40287;DHT22;25998;46.604;13.610;2022-07-23T08:29:24;25.80;90.30
40287;DHT22;25998;46.604;13.610;2022-07-23T08:36:07;25.20;90.30
40287;DHT22;25998;46.604;13.610;2022-07-23T08:39:18;25.00;91.10
40287;DHT22;25998;46.604;13.610;2022-07-23T08:42:28;25.10;91.20
40287;DHT22;25998;46.604;13.610;2022-07-23T08:45:44;25.20;90.80
40287;DHT22;25998;46.604;13.610;2022-07-23T08:48:55;25.90;89.80
40287;DHT22;25998;46.604;13.610;2022-07-23T08:52:07;26.60;90.10
40287;DHT22;25998;46.604;13.610;2022-07-23T08:55:21;26.70;86.60
40287;DHT22;25998;46.604;13.610;2022-07-23T08:58:32;26.80;86.00
40287;DHT22;25998;46.604;13.610;2022-07-23T09:01:43;27.20;85.10
40287;DHT22;25998;46.604;13.610;2022-07-23T09:04:54;27.70;87.50
40287;DHT22;25998;46.604;13.610;2022-07-23T09:08:10;28.10;86.70
40287;DHT22;25998;46.604;13.610;2022-07-23T09:11:21;28.40;84.40
40287;DHT22;25998;46.604;13.610;2022-07-23T09:14:44;28.50;86.40
40287;DHT22;25998;46.604;13.610;2022-07-23T09:17:58;28.30;87.60
40287;DHT22;25998;46.604;13.610;2022-07-23T09:21:29;28.10;84.40
40287;DHT22;25998;46.604;13.610;2022-07-23T09:25:05;28.30;82.50
40287;DHT22;25998;46.604;13.610;2022-07-23T09:28:16;28.40;81.90
40287;DHT22;25998;46.604;13.610;2022-07-23T09:31:33;28.40;81.60
40287;DHT22;25998;46.604;13.610;2022-07-23T09:34:49;28.20;81.70
40287;DHT22;25998;46.604;13.610;2022-07-23T09:38:03;28.00;83.60
40287;DHT22;25998;46.604;13.610;2022-07-23T09:41:14;28.30;80.70
40287;DHT22;25998;46.604;13.610;2022-07-23T09:44:25;29.00;81.60
40287;DHT22;25998;46.604;13.610;2022-07-23T09:47:35;29.40;81.00
40287;DHT22;25998;46.604;13.610;2022-07-23T09:50:46;29.70;81.10
40287;DHT22;25998;46.604;13.610;2022-07-23T09:53:58;29.80;80.10
40287;DHT22;25998;46.604;13.610;2022-07-23T09:57:12;29.80;80.70
40287;DHT22;25998;46.604;13.610;2022-07-23T10:00:27;29.70;80.40
40287;DHT22;25998;46.604;13.610;2022-07-23T10:03:40;30.10;79.90
40287;DHT22;25998;46.604;13.610;2022-07-23T10:06:57;30.00;78.00
40287;DHT22;25998;46.604;13.610;2022-07-23T10:10:08;30.00;77.60
40287;DHT22;25998;46.604;13.610;2022-07-23T10:13:20;30.30;77.40
40287;DHT22;25998;46.604;13.610;2022-07-23T10:16:50;30.90;82.70
40287;DHT22;25998;46.604;13.610;2022-07-23T10:20:01;31.20;80.30
40287;DHT22;25998;46.604;13.610;2022-07-23T10:23:31;31.30;78.30
40287;DHT22;25998;46.604;13.610;2022-07-23T10:30:49;30.90;77.90
40287;DHT22;25998;46.604;13.610;2022-07-23T10:37:39;31.00;78.80
40287;DHT22;25998;46.604;13.610;2022-07-23T10:44:14;31.40;80.30
40287;DHT22;25998;46.604;13.610;2022-07-23T10:47:29;31.50;79.30
40287;DHT22;25998;46.604;13.610;2022-07-23T10:50:41;32.00;78.80
40287;DHT22;25998;46.604;13.610;2022-07-23T10:53:57;31.80;77.80
40287;DHT22;25998;46.604;13.610;2022-07-23T10:57:10;31.40;79.10
40287;DHT22;25998;46.604;13.610;2022-07-23T11:03:35;31.40;78.30
40287;DHT22;25998;46.604;13.610;2022-07-23T11:10:01;31.20;79.70
40287;DHT22;25998;46.604;13.610;2022-07-23T11:16:46;30.30;80.10
40287;DHT22;25998;46.604;13.610;2022-07-23T11:23:22;30.10;80.70
40287;DHT22;25998;46.604;13.610;2022-07-23T11:27:01;30.20;82.70
40287;DHT22;25998;46.604;13.610;2022-07-23T11:33:39;30.50;80.80
40287;DHT22;25998;46.604;13.610;2022-07-23T11:36:51;30.40;80.10
40287;DHT22;25998;46.604;13.610;2022-07-23T11:40:08;30.50;82.10
40287;DHT22;25998;46.604;13.610;2022-07-23T11:43:20;30.20;79.30
40287;DHT22;25998;46.604;13.610;2022-07-23T11:46:31;29.80;80.90
40287;DHT22;25998;46.604;13.610;2022-07-23T11:50:03;29.70;81.60
40287;DHT22;25998;46.604;13.610;2022-07-23T11:53:31;29.90;80.60
40287;DHT22;25998;46.604;13.610;2022-07-23T11:56:59;29.90;80.20
40287;DHT22;25998;46.604;13.610;2022-07-23T12:00:18;30.20;82.60
40287;DHT22;25998;46.604;13.610;2022-07-23T12:03:30;30.60;81.90
40287;DHT22;25998;46.604;13.610;2022-07-23T12:06:41;30.90;78.50
40287;DHT22;25998;46.604;13.610;2022-07-23T12:09:52;31.00;78.70
40287;DHT22;25998;46.604;13.610;2022-07-23T12:13:08;31.10;77.70
40287;DHT22;25998;46.604;13.610;2022-07-23T12:16:20;31.70;77.40
40287;DHT22;25998;46.604;13.610;2022-07-23T12:19:31;32.00;78.00
40287;DHT22;25998;46.604;13.610;2022-07-23T12:22:48;32.50;77.90
40287;DHT22;25998;46.604;13.610;2022-07-23T12:26:02;32.70;75.40
40287;DHT22;25998;46.604;13.610;2022-07-23T12:29:13;32.80;76.80
40287;DHT22;25998;46.604;13.610;2022-07-23T12:32:26;33.00;80.20
40287;DHT22;25998;46.604;13.610;2022-07-23T12:35:42;33.00;79.30
40287;DHT22;25998;46.604;13.610;2022-07-23T12:38:54;33.30;77.10
40287;DHT22;25998;46.604;13.610;2022-07-23T12:42:11;33.10;76.50
40287;DHT22;25998;46.604;13.610;2022-07-23T12:45:22;33.30;76.30
40287;DHT22;25998;46.604;13.610;2022-07-23T12:52:00;33.60;76.70
40287;DHT22;25998;46.604;13.610;2022-07-23T12:55:27;33.50;77.50
40287;DHT22;25998;46.604;13.610;2022-07-23T13:01:57;33.80;75.70
40287;DHT22;25998;46.604;13.610;2022-07-23T13:05:11;34.10;76.00
40287;DHT22;25998;46.604;13.610;2022-07-23T13:08:22;33.90;76.70
40287;DHT22;25998;46.604;13.610;2022-07-23T13:11:34;33.60;76.90
40287;DHT22;25998;46.604;13.610;2022-07-23T13:14:45;33.50;77.30
40287;DHT22;25998;46.604;13.610;2022-07-23T13:17:56;33.80;75.40
40287;DHT22;25998;46.604;13.610;2022-07-23T13:21:07;33.90;75.50
40287;DHT22;25998;46.604;13.610;2022-07-23T13:24:18;34.00;75.10
40287;DHT22;25998;46.604;13.610;2022-07-23T13:27:29;33.80;77.40
40287;DHT22;25998;46.604;13.610;2022-07-23T13:30:41;33.80;75.10
40287;DHT22;25998;46.604;13.610;2022-07-23T13:33:52;34.00;77.40
40287;DHT22;25998;46.604;13.610;2022-07-23T13:37:03;33.90;75.70
40287;DHT22;25998;46.604;13.610;2022-07-23T13:40:14;34.00;74.60
40287;DHT22;25998;46.604;13.610;2022-07-23T13:43:25;34.10;75.10
40287;DHT22;25998;46.604;13.610;2022-07-23T13:46:36;34.30;75.60
40287;DHT22;25998;46.604;13.610;2022-07-23T13:49:47;34.30;74.30
40287;DHT22;25998;46.604;13.610;2022-07-23T13:53:10;34.20;74.00
40287;DHT22;25998;46.604;13.610;2022-07-23T13:56:21;34.20;74.20
40287;DHT22;25998;46.604;13.610;2022-07-23T13:59:32;34.10;75.40
40287;DHT22;25998;46.604;13.610;2022-07-23T14:02:43;33.90;76.70
40287;DHT22;25998;46.604;13.610;2022-07-23T14:05:57;33.60;75.00
40287;DHT22;25998;46.604;13.610;2022-07-23T14:09:07;33.80;74.00
40287;DHT22;25998;46.604;13.610;2022-07-23T14:12:18;34.10;74.00
40287;DHT22;25998;46.604;13.610;2022-07-23T14:15:31;34.10;75.50
40287;DHT22;25998;46.604;13.610;2022-07-23T14:18:42;34.20;73.50
40287;DHT22;25998;46.604;13.610;2022-07-23T14:21:53;34.20;73.30
40287;DHT22;25998;46.604;13.610;2022-07-23T14:25:05;34.20;72.30
40287;DHT22;25998;46.604;13.610;2022-07-23T14:28:17;34.50;74.30
40287;DHT22;25998;46.604;13.610;2022-07-23T14:31:27;34.50;74.00
40287;DHT22;25998;46.604;13.610;2022-07-23T14:34:38;34.30;73.60
40287;DHT22;25998;46.604;13.610;2022-07-23T14:37:49;34.40;73.90
40287;DHT22;25998;46.604;13.610;2022-07-23T14:41:00;34.30;71.00
40287;DHT22;25998;46.604;13.610;2022-07-23T14:44:11;34.20;72.60
40287;DHT22;25998;46.604;13.610;2022-07-23T14:47:22;34.40;72.70
40287;DHT22;25998;46.604;13.610;2022-07-23T14:50:33;34.80;73.60
40287;DHT22;25998;46.604;13.610;2022-07-23T14:53:44;35.00;70.10
40287;DHT22;25998;46.604;13.610;2022-07-23T14:56:57;34.70;69.50
40287;DHT22;25998;46.604;13.610;2022-07-23T15:00:11;34.60;71.40
40287;DHT22;25998;46.604;13.610;2022-07-23T15:03:22;34.60;72.00
40287;DHT22;25998;46.604;13.610;2022-07-23T15:06:34;34.80;71.90
40287;DHT22;25998;46.604;13.610;2022-07-23T15:09:45;34.80;70.70
40287;DHT22;25998;46.604;13.610;2022-07-23T15:12:56;34.80;70.90
40287;DHT22;25998;46.604;13.610;2022-07-23T15:16:07;34.60;72.40
40287;DHT22;25998;46.604;13.610;2022-07-23T15:19:21;34.30;71.70
40287;DHT22;25998;46.604;13.610;2022-07-23T15:22:32;34.00;70.70
40287;DHT22;25998;46.604;13.610;2022-07-23T15:25:43;33.90;71.10
40287;DHT22;25998;46.604;13.610;2022-07-23T15:28:55;33.70;75.80
40287;DHT22;25998;46.604;13.610;2022-07-23T15:32:06;33.20;77.60
40287;DHT22;25998;46.604;13.610;2022-07-23T15:35:17;33.00;76.10
40287;DHT22;25998;46.604;13.610;2022-07-23T15:38:28;32.90;76.60
40287;DHT22;25998;46.604;13.610;2022-07-23T15:41:41;32.60;77.50
40287;DHT22;25998;46.604;13.610;2022-07-23T15:45:04;32.50;78.00
40287;DHT22;25998;46.604;13.610;2022-07-23T15:48:19;32.40;79.40
40287;DHT22;25998;46.604;13.610;2022-07-23T15:51:30;32.40;80.90
40287;DHT22;25998;46.604;13.610;2022-07-23T15:54:42;32.20;81.40
40287;DHT22;25998;46.604;13.610;2022-07-23T15:57:53;31.80;83.10
40287;DHT22;25998;46.604;13.610;2022-07-23T16:01:04;31.50;83.80
40287;DHT22;25998;46.604;13.610;2022-07-23T16:04:17;31.20;84.20
40287;DHT22;25998;46.604;13.610;2022-07-23T16:07:30;31.00;84.80
40287;DHT22;25998;46.604;13.610;2022-07-23T16:10:42;30.70;85.70
40287;DHT22;25998;46.604;13.610;2022-07-23T16:13:56;30.70;84.40
40287;DHT22;25998;46.604;13.610;2022-07-23T16:17:12;30.90;86.10
40287;DHT22;25998;46.604;13.610;2022-07-23T16:20:24;30.60;86.20
40287;DHT22;25998;46.604;13.610;2022-07-23T16:23:35;30.50;85.70
40287;DHT22;25998;46.604;13.610;2022-07-23T16:26:46;30.30;87.90
40287;DHT22;25998;46.604;13.610;2022-07-23T16:29:57;30.20;87.70
40287;DHT22;25998;46.604;13.610;2022-07-23T16:33:08;30.00;87.00
40287;DHT22;25998;46.604;13.610;2022-07-23T16:36:22;30.00;86.90
40287;DHT22;25998;46.604;13.610;2022-07-23T16:39:33;30.00;85.10
40287;DHT22;25998;46.604;13.610;2022-07-23T16:42:44;29.80;85.00
40287;DHT22;25998;46.604;13.610;2022-07-23T16:45:55;29.60;84.70
40287;DHT22;25998;46.604;13.610;2022-07-23T16:49:06;29.60;83.90
40287;DHT22;25998;46.604;13.610;2022-07-23T16:52:20;29.50;83.80
40287;DHT22;25998;46.604;13.610;2022-07-23T16:55:31;29.20;84.60
40287;DHT22;25998;46.604;13.610;2022-07-23T16:58:42;29.20;85.40
40287;DHT22;25998;46.604;13.610;2022-07-23T17:01:53;29.10;85.90
40287;DHT22;25998;46.604;13.610;2022-07-23T17:05:04;29.10;84.90
40287;DHT22;25998;46.604;13.610;2022-07-23T17:08:17;29.00;78.70
40287;DHT22;25998;46.604;13.610;2022-07-23T17:11:28;28.90;80.10
40287;DHT22;25998;46.604;13.610;2022-07-23T17:14:39;28.90;80.00
40287;DHT22;25998;46.604;13.610;2022-07-23T17:17:50;28.70;81.70
40287;DHT22;25998;46.604;13.610;2022-07-23T17:21:01;28.30;82.50
40287;DHT22;25998;46.604;13.610;2022-07-23T17:24:16;28.00;83.70
40287;DHT22;25998;46.604;13.610;2022-07-23T17:27:27;27.70;84.60
40287;DHT22;25998;46.604;13.610;2022-07-23T17:30:38;27.70;85.10
40287;DHT22;25998;46.604;13.610;2022-07-23T17:33:49;27.70;85.30
40287;DHT22;25998;46.604;13.610;2022-07-23T17:37:00;27.60;86.50
40287;DHT22;25998;46.604;13.610;2022-07-23T17:40:11;27.30;87.80
40287;DHT22;25998;46.604;13.610;2022-07-23T17:43:22;26.90;90.20
40287;DHT22;25998;46.604;13.610;2022-07-23T17:46:33;26.50;91.00
40287;DHT22;25998;46.604;13.610;2022-07-23T17:49:44;26.00;91.20
40287;DHT22;25998;46.604;13.610;2022-07-23T17:52:56;25.70;91.80
40287;DHT22;25998;46.604;13.610;2022-07-23T17:56:07;25.50;92.50
40287;DHT22;25998;46.604;13.610;2022-07-23T17:59:18;25.70;92.70
40287;DHT22;25998;46.604;13.610;2022-07-23T18:02:29;25.60;92.50
40287;DHT22;25998;46.604;13.610;2022-07-23T18:05:40;25.50;91.80
40287;DHT22;25998;46.604;13.610;2022-07-23T18:08:51;25.50;91.70
40287;DHT22;25998;46.604;13.610;2022-07-23T18:12:02;25.50;91.70
40287;DHT22;25998;46.604;13.610;2022-07-23T18:15:14;25.50;91.10
40287;DHT22;25998;46.604;13.610;2022-07-23T18:18:25;25.70;92.10
40287;DHT22;25998;46.604;13.610;2022-07-23T18:21:38;25.90;92.00
40287;DHT22;25998;46.604;13.610;2022-07-23T18:24:49;25.70;92.30
40287;DHT22;25998;46.604;13.610;2022-07-23T18:28:00;25.00;94.60
40287;DHT22;25998;46.604;13.610;2022-07-23T18:31:12;24.40;93.90
40287;DHT22;25998;46.604;13.610;2022-07-23T18:34:23;24.40;94.70
40287;DHT22;25998;46.604;13.610;2022-07-23T18:37:34;24.40;95.80
40287;DHT22;25998;46.604;13.610;2022-07-23T18:40:46;24.50;96.90
40287;DHT22;25998;46.604;13.610;2022-07-23T18:43:57;24.40;96.60
40287;DHT22;25998;46.604;13.610;2022-07-23T18:47:08;24.30;97.40
40287;DHT22;25998;46.604;13.610;2022-07-23T18:50:19;24.10;98.30
40287;DHT22;25998;46.604;13.610;2022-07-23T18:53:30;24.10;98.00
40287;DHT22;25998;46.604;13.610;2022-07-23T18:56:42;24.00;98.50
40287;DHT22;25998;46.604;13.610;2022-07-23T18:59:53;23.70;98.80
40287;DHT22;25998;46.604;13.610;2022-07-23T19:03:05;23.60;99.80
40287;DHT22;25998;46.604;13.610;2022-07-23T19:06:16;23.40;99.90
40287;DHT22;25998;46.604;13.610;2022-07-23T19:09:27;23.30;99.90
40287;DHT22;25998;46.604;13.610;2022-07-23T19:12:38;23.30;99.90
40287;DHT22;25998;46.604;13.610;2022-07-23T19:15:49;23.30;99.90
40287;DHT22;25998;46.604;13.610;2022-07-23T19:19:00;23.40;99.90
40287;DHT22;25998;46.604;13.610;2022-07-23T19:22:11;23.60;99.90
40287;DHT22;25998;46.604;13.610;2022-07-23T19:25:22;23.50;99.90
40287;DHT22;25998;46.604;13.610;2022-07-23T19:28:32;23.50;99.90
40287;DHT22;25998;46.604;13.610;2022-07-23T19:31:43;23.50;99.90
40287;DHT22;25998;46.604;13.610;2022-07-23T19:34:54;23.20;99.90
40287;DHT22;25998;46.604;13.610;2022-07-23T19:38:05;22.90;99.90
40287;DHT22;25998;46.604;13.610;2022-07-23T19:41:16;22.80;99.90
40287;DHT22;25998;46.604;13.610;2022-07-23T19:44:28;22.60;99.90
40287;DHT22;25998;46.604;13.610;2022-07-23T19:47:39;22.70;99.90
40287;DHT22;25998;46.604;13.610;2022-07-23T19:50:54;22.70;99.90
40287;DHT22;25998;46.604;13.610;2022-07-23T19:54:08;22.70;99.90
40287;DHT22;25998;46.604;13.610;2022-07-23T19:57:19;22.30;99.90
40287;DHT22;25998;46.604;13.610;2022-07-23T20:00:30;22.70;99.90
40287;DHT22;25998;46.604;13.610;2022-07-23T20:03:41;22.70;99.90
40287;DHT22;25998;46.604;13.610;2022-07-23T20:06:52;22.70;99.90
40287;DHT22;25998;46.604;13.610;2022-07-23T20:10:05;22.20;99.90
40287;DHT22;25998;46.604;13.610;2022-07-23T20:13:16;21.80;99.90
40287;DHT22;25998;46.604;13.610;2022-07-23T20:16:27;22.00;99.90
40287;DHT22;25998;46.604;13.610;2022-07-23T20:19:38;22.10;99.90
40287;DHT22;25998;46.604;13.610;2022-07-23T20:22:49;22.10;99.90
40287;DHT22;25998;46.604;13.610;2022-07-23T20:26:00;22.20;99.90
40287;DHT22;25998;46.604;13.610;2022-07-23T20:29:12;22.30;99.90
40287;DHT22;25998;46.604;13.610;2022-07-23T20:32:23;22.40;99.90